createdAt,value
2019-03-15T00:00:15.939Z,101169.55
2019-03-15T00:03:19.092Z,101181.62
2019-03-15T00:06:22.379Z,101182.80
2019-03-15T00:09:26.176Z,101187.62
2019-03-15T00:12:29.292Z,101188.46
2019-03-15T00:15:32.490Z,101199.37
2019-03-15T00:18:35.799Z,101200.26
2019-03-15T00:21:38.979Z,101211.22
2019-03-15T00:24:42.176Z,101220.37
2019-03-15T00:27:45.372Z,101227.39
2019-03-15T00:30:48.551Z,101230.11
2019-03-15T00:33:51.738Z,101234.86
2019-03-15T00:36:55.959Z,101230.48
2019-03-15T00:39:59.243Z,101235.00
2019-03-15T00:43:02.363Z,101227.44
2019-03-15T00:46:05.661Z,101233.06
2019-03-15T00:49:08.844Z,101227.36
2019-03-15T00:52:12.067Z,101234.28
2019-03-15T00:55:15.340Z,101239.02
2019-03-15T00:58:18.535Z,101239.79
2019-03-15T01:01:21.731Z,101236.47
2019-03-15T01:04:24.920Z,101235.08
2019-03-15T01:07:28.007Z,101248.29
2019-03-15T01:10:31.214Z,101242.48
2019-03-15T01:13:34.435Z,101247.18
2019-03-15T01:16:37.584Z,101240.04
2019-03-15T01:19:40.679Z,101238.29
2019-03-15T01:22:43.984Z,101247.26
2019-03-15T01:25:47.241Z,101256.05
2019-03-15T01:28:50.387Z,101269.55
2019-03-15T01:31:53.673Z,101275.69
2019-03-15T01:34:56.872Z,101272.48
2019-03-15T01:38:00.073Z,101268.80
2019-03-15T01:41:04.284Z,101271.26
2019-03-15T01:44:06.487Z,101263.50
2019-03-15T01:47:09.642Z,101254.84
2019-03-15T01:50:12.845Z,101261.82
2019-03-15T01:53:16.024Z,101257.44
2019-03-15T01:56:19.132Z,101254.58
2019-03-15T01:59:23.012Z,101256.17
2019-03-15T02:02:25.628Z,101262.69
2019-03-15T02:05:28.812Z,101258.97
2019-03-15T02:08:31.907Z,101251.40
2019-03-15T02:11:35.023Z,101252.86
2019-03-15T02:14:38.301Z,101250.81
2019-03-15T02:17:41.570Z,101257.51
2019-03-15T02:20:44.683Z,101256.47
2019-03-15T02:23:48.400Z,101252.72
2019-03-15T02:26:51.180Z,101250.68
2019-03-15T02:29:54.422Z,101245.06
2019-03-15T02:32:57.645Z,101256.48
2019-03-15T02:36:00.847Z,101249.26
2019-03-15T02:39:05.399Z,101246.09
2019-03-15T02:42:08.595Z,101240.68
2019-03-15T02:45:11.771Z,101236.43
2019-03-15T02:48:14.975Z,101248.22
2019-03-15T02:51:18.162Z,101242.82
2019-03-15T02:54:21.374Z,101234.63
2019-03-15T02:57:24.662Z,101242.32
2019-03-15T03:00:27.955Z,101242.61
2019-03-15T03:03:31.152Z,101246.58
2019-03-15T03:06:34.347Z,101247.76
2019-03-15T03:09:37.616Z,101248.96
2019-03-15T03:12:40.833Z,101246.04
2019-03-15T03:15:44.013Z,101246.53
2019-03-15T03:18:47.214Z,101248.72
2019-03-15T03:21:50.435Z,101243.06
2019-03-15T03:24:53.720Z,101246.20
2019-03-15T03:27:56.929Z,101253.01
2019-03-15T03:31:00.460Z,101253.43
2019-03-15T03:34:03.692Z,101256.28
2019-03-15T03:37:06.947Z,101258.58
2019-03-15T03:40:10.204Z,101259.82
2019-03-15T03:43:13.296Z,101268.95
2019-03-15T03:46:16.464Z,101261.95
2019-03-15T03:49:19.665Z,101264.67
2019-03-15T03:52:22.873Z,101262.86
2019-03-15T03:55:26.090Z,101267.04
2019-03-15T03:58:29.299Z,101264.93
2019-03-15T04:01:32.479Z,101258.13
2019-03-15T04:04:35.645Z,101257.11
2019-03-15T04:07:38.841Z,101264.82
2019-03-15T04:10:41.923Z,101261.28
2019-03-15T04:13:45.120Z,101259.35
2019-03-15T04:16:48.236Z,101261.78
2019-03-15T04:19:51.442Z,101264.14
2019-03-15T04:22:55.512Z,101276.25
2019-03-15T04:26:00.415Z,101280.32
2019-03-15T04:29:03.569Z,101278.16
2019-03-15T04:32:06.661Z,101277.19
2019-03-15T04:35:09.857Z,101273.27
2019-03-15T04:38:13.063Z,101272.26
2019-03-15T04:41:16.332Z,101266.92
2019-03-15T04:44:19.667Z,101268.89
2019-03-15T04:47:22.811Z,101261.37
2019-03-15T04:50:25.924Z,101257.22
2019-03-15T04:53:29.476Z,101252.29
2019-03-15T04:56:32.611Z,101255.04
2019-03-15T04:59:35.831Z,101248.23
2019-03-15T05:02:39.104Z,101241.81
2019-03-15T05:05:42.316Z,101241.94
2019-03-15T05:08:45.467Z,101243.60
2019-03-15T05:11:48.560Z,101243.49
2019-03-15T05:14:51.661Z,101247.18
2019-03-15T05:17:54.772Z,101250.80
2019-03-15T05:20:57.987Z,101250.20
2019-03-15T05:24:01.288Z,101247.00
2019-03-15T05:27:04.486Z,101254.89
2019-03-15T05:30:07.911Z,101254.14
2019-03-15T05:33:11.041Z,101250.96
2019-03-15T05:36:14.324Z,101244.36
2019-03-15T05:39:17.516Z,101239.96
2019-03-15T05:42:20.719Z,101245.67
2019-03-15T05:45:24.019Z,101247.36
2019-03-15T05:48:27.218Z,101246.17
2019-03-15T05:51:30.515Z,101247.46
2019-03-15T05:54:34.323Z,101249.23
2019-03-15T05:57:37.627Z,101243.77
2019-03-15T06:00:40.798Z,101243.50
2019-03-15T06:03:48.938Z,101241.00
2019-03-15T06:06:47.224Z,101235.00
2019-03-15T06:09:50.400Z,101238.43
2019-03-15T06:12:53.683Z,101232.47
2019-03-15T06:15:56.791Z,101236.04
2019-03-15T06:18:59.988Z,101235.47
2019-03-15T06:22:03.221Z,101233.45
2019-03-15T06:25:06.368Z,101232.13
2019-03-15T06:28:09.572Z,101239.95
2019-03-15T06:31:12.764Z,101236.18
2019-03-15T06:34:16.044Z,101234.85
2019-03-15T06:37:19.238Z,101235.51
2019-03-15T06:40:22.543Z,101237.36
2019-03-15T06:43:25.832Z,101236.69
2019-03-15T06:46:29.125Z,101234.01
2019-03-15T06:49:32.353Z,101226.86
2019-03-15T06:52:35.527Z,101228.63
2019-03-15T06:55:38.749Z,101232.99
2019-03-15T06:58:41.913Z,101233.49
2019-03-15T07:01:45.119Z,101223.08
2019-03-15T07:04:48.417Z,101227.62
2019-03-15T07:07:51.720Z,101227.59
2019-03-15T07:10:54.984Z,101219.68
2019-03-15T07:13:58.187Z,101217.12
2019-03-15T07:17:01.895Z,101210.38
2019-03-15T07:20:05.807Z,101214.37
2019-03-15T07:23:09.111Z,101209.70
2019-03-15T07:26:15.825Z,101211.37
2019-03-15T07:29:19.187Z,101204.93
2019-03-15T07:32:22.172Z,101210.54
2019-03-15T07:35:25.391Z,101207.64
2019-03-15T07:38:28.695Z,101205.73
2019-03-15T07:41:31.975Z,101199.82
2019-03-15T07:44:35.560Z,101191.62
2019-03-15T07:47:38.770Z,101190.34
2019-03-15T07:50:41.974Z,101185.41
2019-03-15T07:53:46.486Z,101180.23
2019-03-15T07:56:49.685Z,101180.15
2019-03-15T07:59:52.927Z,101180.59
2019-03-15T08:02:56.096Z,101173.26
2019-03-15T08:05:59.281Z,101172.43
2019-03-15T08:09:02.554Z,101174.27
2019-03-15T08:12:05.867Z,101165.04
2019-03-15T08:15:09.118Z,101169.75
2019-03-15T08:18:12.247Z,101168.55
2019-03-15T08:21:15.419Z,101160.13
2019-03-15T08:24:18.644Z,101159.62
2019-03-15T08:27:21.860Z,101154.34
2019-03-15T08:30:25.055Z,101160.58
2019-03-15T08:33:28.350Z,101156.29
2019-03-15T08:36:31.499Z,101148.21
2019-03-15T08:39:34.624Z,101143.73
2019-03-15T08:42:37.811Z,101146.71
2019-03-15T08:45:41.012Z,101140.14
2019-03-15T08:48:44.172Z,101138.99
2019-03-15T08:51:47.317Z,101141.68
2019-03-15T08:54:50.476Z,101141.68
2019-03-15T08:57:54.043Z,101137.90
2019-03-15T09:00:57.160Z,101134.90
2019-03-15T09:04:00.435Z,101138.35
2019-03-15T09:07:03.629Z,101130.98
2019-03-15T09:10:21.271Z,101131.58
2019-03-15T09:13:10.580Z,101132.51
2019-03-15T09:16:13.773Z,101131.52
2019-03-15T09:19:16.943Z,101132.71
2019-03-15T09:22:20.184Z,101125.27
2019-03-15T09:25:23.356Z,101113.36
2019-03-15T09:28:26.525Z,101111.58
2019-03-15T09:31:37.013Z,101108.86
2019-03-15T09:34:32.911Z,101111.52
2019-03-15T09:37:36.051Z,101107.40
2019-03-15T09:40:39.216Z,101108.50
2019-03-15T09:43:45.198Z,101109.82
2019-03-15T09:46:45.604Z,101111.75
2019-03-15T09:49:48.882Z,101109.23
2019-03-15T09:52:51.992Z,101106.16
2019-03-15T09:55:55.177Z,101105.70
2019-03-15T09:58:58.401Z,101104.18
2019-03-15T10:02:01.578Z,101100.35
2019-03-15T10:05:10.648Z,101102.34
2019-03-15T10:08:08.383Z,101108.38
2019-03-15T10:11:11.567Z,101108.43
2019-03-15T10:14:14.763Z,101106.86
2019-03-15T10:17:17.935Z,101108.82
2019-03-15T10:20:21.036Z,101096.14
2019-03-15T10:23:24.129Z,101102.88
2019-03-15T10:26:27.355Z,101095.42
2019-03-15T10:29:30.509Z,101103.99
2019-03-15T10:32:33.715Z,101100.08
2019-03-15T10:35:36.884Z,101094.92
2019-03-15T10:38:39.998Z,101085.94
2019-03-15T10:41:43.196Z,101095.99
2019-03-15T10:44:46.287Z,101085.46
2019-03-15T10:47:49.491Z,101084.45
2019-03-15T10:50:52.677Z,101095.91
2019-03-15T10:53:55.883Z,101093.10
2019-03-15T10:56:59.059Z,101095.98
2019-03-15T11:00:02.274Z,101097.40
2019-03-15T11:03:05.500Z,101087.88
2019-03-15T11:06:08.598Z,101101.45
2019-03-15T11:09:11.752Z,101098.95
2019-03-15T11:12:14.939Z,101096.28
2019-03-15T11:15:18.250Z,101102.15
2019-03-15T11:18:21.418Z,101101.69
2019-03-15T11:21:24.542Z,101101.90
2019-03-15T11:24:27.808Z,101103.43
2019-03-15T11:27:30.928Z,101101.49
2019-03-15T11:30:34.104Z,101109.14
2019-03-15T11:33:37.227Z,101104.32
2019-03-15T11:36:40.398Z,101099.70
2019-03-15T11:39:43.504Z,101100.59
2019-03-15T11:42:46.699Z,101103.36
2019-03-15T11:45:49.861Z,101114.40
2019-03-15T11:48:53.014Z,101110.82
2019-03-15T11:51:57.164Z,101104.14
2019-03-15T11:55:00.471Z,101105.74
2019-03-15T11:58:03.695Z,101101.13
2019-03-15T12:01:06.875Z,101103.41
2019-03-15T12:04:09.967Z,101114.21
2019-03-15T12:07:13.294Z,101109.88
2019-03-15T12:10:16.376Z,101116.15
2019-03-15T12:13:19.551Z,101115.50
2019-03-15T12:16:22.781Z,101117.73
2019-03-15T12:19:25.921Z,101115.12
2019-03-15T12:22:29.040Z,101113.39
2019-03-15T12:25:32.255Z,101111.38
2019-03-15T12:28:35.404Z,101113.76
2019-03-15T12:31:39.095Z,101105.85
2019-03-15T12:34:42.205Z,101111.55
2019-03-15T12:37:45.308Z,101113.27
2019-03-15T12:40:48.391Z,101116.70
2019-03-15T12:43:51.504Z,101119.14
2019-03-15T12:46:54.691Z,101123.95
2019-03-15T12:49:57.975Z,101125.46
2019-03-15T12:53:01.167Z,101131.85
2019-03-15T12:56:04.291Z,101129.67
2019-03-15T12:59:07.498Z,101121.02
2019-03-15T13:02:10.597Z,101122.14
2019-03-15T13:05:13.768Z,101124.99
2019-03-15T13:08:17.009Z,101126.14
2019-03-15T13:11:20.182Z,101131.58
2019-03-15T13:14:23.361Z,101132.15
2019-03-15T13:17:26.664Z,101128.11
2019-03-15T13:20:29.875Z,101122.73
2019-03-15T13:23:33.124Z,101121.91
2019-03-15T13:26:36.342Z,101131.90
2019-03-15T13:29:39.500Z,101128.13
2019-03-15T13:32:42.726Z,101130.29
2019-03-15T13:35:46.007Z,101131.99
2019-03-15T13:38:49.216Z,101141.50
2019-03-15T13:41:52.411Z,101136.70
2019-03-15T13:44:55.506Z,101146.10
2019-03-15T13:47:58.679Z,101150.94
2019-03-15T13:51:01.860Z,101160.76
2019-03-15T13:54:04.975Z,101157.40
2019-03-15T13:57:20.265Z,101156.65
2019-03-15T14:00:12.040Z,101150.86
2019-03-15T14:03:15.151Z,101156.02
2019-03-15T14:06:18.270Z,101163.93
2019-03-15T14:09:21.463Z,101168.00
2019-03-15T14:12:24.662Z,101157.96
2019-03-15T14:15:27.828Z,101170.11
2019-03-15T14:18:31.037Z,101182.98
2019-03-15T14:21:34.248Z,101174.63
2019-03-15T14:24:37.409Z,101169.70
2019-03-15T14:27:40.654Z,101179.75
2019-03-15T14:30:43.822Z,101181.27
2019-03-15T14:33:47.018Z,101172.22
2019-03-15T14:36:50.212Z,101178.77
2019-03-15T14:39:53.484Z,101165.84
2019-03-15T14:42:56.507Z,101171.24
2019-03-15T14:45:59.697Z,101177.30
2019-03-15T14:49:02.892Z,101176.12
2019-03-15T14:52:05.980Z,101176.78
2019-03-15T14:55:09.208Z,101178.74
2019-03-15T14:58:12.365Z,101180.57
2019-03-15T15:01:15.548Z,101186.03
2019-03-15T15:04:18.764Z,101181.66
2019-03-15T15:07:21.946Z,101189.95
2019-03-15T15:10:25.050Z,101188.73
2019-03-15T15:13:28.268Z,101177.44
2019-03-15T15:16:31.456Z,101176.53
2019-03-15T15:19:34.717Z,101175.48
2019-03-15T15:22:37.940Z,101177.20
2019-03-15T15:25:41.107Z,101183.28
2019-03-15T15:28:44.206Z,101189.36
2019-03-15T15:31:47.311Z,101184.54
2019-03-15T15:34:50.503Z,101191.85
2019-03-15T15:37:53.679Z,101178.78
2019-03-15T15:40:56.919Z,101183.36
2019-03-15T15:44:00.076Z,101188.16
2019-03-15T15:47:03.287Z,101183.20
2019-03-15T15:50:06.967Z,101183.12
2019-03-15T15:53:11.250Z,101183.45
2019-03-15T15:56:13.471Z,101181.09
2019-03-15T15:59:16.672Z,101185.63
2019-03-15T16:02:19.899Z,101188.37
2019-03-15T16:05:23.059Z,101198.85
2019-03-15T16:08:26.237Z,101192.17
2019-03-15T16:11:29.428Z,101186.36
2019-03-15T16:14:32.641Z,101188.95
2019-03-15T16:17:36.867Z,101196.72
2019-03-15T16:20:40.056Z,101201.61
2019-03-15T16:23:43.253Z,101211.57
2019-03-15T16:26:46.449Z,101210.46
2019-03-15T16:29:49.637Z,101211.07
2019-03-15T16:32:52.967Z,101209.00
2019-03-15T16:36:01.286Z,101220.48
2019-03-15T16:39:05.950Z,101215.89
2019-03-15T16:42:09.064Z,101206.59
2019-03-15T16:45:15.174Z,101207.92
2019-03-15T16:48:16.992Z,101215.23
2019-03-15T16:51:20.294Z,101206.48
2019-03-15T16:54:23.577Z,101217.06
2019-03-15T16:57:26.791Z,101215.30
2019-03-15T17:00:29.991Z,101213.57
2019-03-15T17:03:33.320Z,101219.75
2019-03-15T17:06:36.579Z,101229.85
2019-03-15T17:09:40.327Z,101227.84
2019-03-15T17:12:43.679Z,101228.90
2019-03-15T17:15:46.932Z,101232.73
2019-03-15T17:18:50.176Z,101231.54
2019-03-15T17:21:53.441Z,101223.75
2019-03-15T17:24:56.645Z,101230.13
2019-03-15T17:27:59.871Z,101227.33
2019-03-15T17:31:09.649Z,101228.04
2019-03-15T17:34:06.374Z,101236.81
2019-03-15T17:37:09.626Z,101236.22
2019-03-15T17:40:12.973Z,101230.22
2019-03-15T17:43:16.119Z,101241.42
2019-03-15T17:46:19.216Z,101243.37
2019-03-15T17:49:22.413Z,101244.89
2019-03-15T17:52:25.622Z,101243.61
2019-03-15T17:55:28.822Z,101247.21
2019-03-15T17:58:32.027Z,101248.24
2019-03-15T18:01:35.196Z,101240.22
2019-03-15T18:04:38.380Z,101244.89
2019-03-15T18:07:41.596Z,101248.78
2019-03-15T18:10:44.876Z,101253.24
2019-03-15T18:13:48.284Z,101251.30
2019-03-15T18:16:53.625Z,101244.88
2019-03-15T18:19:56.907Z,101251.33
2019-03-15T18:23:00.116Z,101253.96
2019-03-15T18:26:03.314Z,101240.30
2019-03-15T18:29:06.512Z,101245.91
2019-03-15T18:32:09.910Z,101252.47
2019-03-15T18:35:13.117Z,101250.84
2019-03-15T18:38:16.189Z,101252.40
2019-03-15T18:41:19.296Z,101251.75
2019-03-15T18:44:22.486Z,101256.69
2019-03-15T18:47:25.588Z,101257.49
2019-03-15T18:50:28.774Z,101261.77
2019-03-15T18:53:32.611Z,101259.76
2019-03-15T18:56:35.770Z,101260.68
2019-03-15T18:59:40.503Z,101268.86
2019-03-15T19:02:42.475Z,101260.91
2019-03-15T19:05:45.652Z,101253.69
2019-03-15T19:08:48.925Z,101263.89
2019-03-15T19:11:52.043Z,101267.78
2019-03-15T19:14:55.215Z,101268.73
2019-03-15T19:17:58.451Z,101270.05
2019-03-15T19:21:01.524Z,101278.66
2019-03-15T19:24:04.736Z,101267.97
2019-03-15T19:27:07.931Z,101271.88
2019-03-15T19:30:11.900Z,101271.19
2019-03-15T19:33:15.055Z,101278.28
2019-03-15T19:36:18.207Z,101273.96
2019-03-15T19:39:21.408Z,101284.35
2019-03-15T19:42:24.760Z,101283.83
2019-03-15T19:45:27.941Z,101285.67
2019-03-15T19:48:31.244Z,101295.13
2019-03-15T19:51:34.400Z,101295.04
2019-03-15T19:54:37.612Z,101299.08
2019-03-15T19:57:40.804Z,101295.37
2019-03-15T20:00:48.782Z,101294.30
2019-03-15T20:03:52.208Z,101293.42
2019-03-15T20:06:55.456Z,101299.98
2019-03-15T20:09:58.604Z,101297.59
2019-03-15T20:13:02.823Z,101303.52
2019-03-15T20:16:04.872Z,101310.54
2019-03-15T20:19:08.119Z,101315.72
2019-03-15T20:22:11.263Z,101320.59
2019-03-15T20:25:14.457Z,101320.80
2019-03-15T20:28:17.643Z,101324.07
2019-03-15T20:31:20.853Z,101329.60
2019-03-15T20:34:24.031Z,101334.18
2019-03-15T20:37:27.227Z,101320.24
2019-03-15T20:40:30.463Z,101323.66
2019-03-15T20:43:33.632Z,101331.96
2019-03-15T20:46:36.793Z,101333.50
2019-03-15T20:49:39.912Z,101332.91
2019-03-15T20:52:43.114Z,101343.68
2019-03-15T20:55:46.405Z,101343.07
2019-03-15T20:58:49.488Z,101343.74
2019-03-15T21:01:52.677Z,101353.92
2019-03-15T21:04:55.909Z,101351.33
2019-03-15T21:07:59.073Z,101352.66
2019-03-15T21:11:02.272Z,101364.76
2019-03-15T21:14:05.447Z,101360.36
2019-03-15T21:17:08.736Z,101369.93
2019-03-15T21:20:12.096Z,101363.99
2019-03-15T21:23:15.239Z,101383.49
2019-03-15T21:26:18.446Z,101383.30
2019-03-15T21:29:21.630Z,101386.66
2019-03-15T21:32:24.888Z,101377.59
2019-03-15T21:35:28.029Z,101382.83
2019-03-15T21:38:31.145Z,101375.99
2019-03-15T21:41:34.219Z,101395.48
2019-03-15T21:44:37.467Z,101400.46
2019-03-15T21:47:40.780Z,101406.60
2019-03-15T21:50:44.013Z,101408.30
2019-03-15T21:53:47.230Z,101408.02
2019-03-15T21:56:50.342Z,101400.82
2019-03-15T21:59:53.604Z,101416.23
2019-03-15T22:02:56.862Z,101405.40
2019-03-15T22:06:00.195Z,101400.27
2019-03-15T22:09:03.411Z,101411.73
2019-03-15T22:12:06.683Z,101408.59
2019-03-15T22:15:09.852Z,101423.90
2019-03-15T22:18:12.944Z,101416.34
2019-03-15T22:21:16.058Z,101424.66
2019-03-15T22:24:19.235Z,101418.42
2019-03-15T22:27:22.432Z,101432.69
2019-03-15T22:30:25.535Z,101429.87
2019-03-15T22:33:28.713Z,101430.28
2019-03-15T22:36:31.856Z,101433.77
2019-03-15T22:39:35.034Z,101435.63
2019-03-15T22:42:38.210Z,101435.39
2019-03-15T22:45:41.508Z,101435.52
2019-03-15T22:48:44.743Z,101452.33
2019-03-15T22:51:47.911Z,101459.17
2019-03-15T22:54:51.180Z,101456.80
2019-03-15T22:57:59.774Z,101456.43
2019-03-15T23:00:57.499Z,101463.42
2019-03-15T23:04:00.674Z,101475.81
2019-03-15T23:07:03.752Z,101479.98
2019-03-15T23:10:07.473Z,101476.90
2019-03-15T23:13:10.667Z,101468.24
2019-03-15T23:16:13.875Z,101482.75
2019-03-15T23:19:17.217Z,101477.96
2019-03-15T23:22:20.471Z,101476.08
2019-03-15T23:25:23.690Z,101479.03
2019-03-15T23:28:26.791Z,101486.59
2019-03-15T23:31:42.656Z,101489.78
2019-03-15T23:34:33.119Z,101504.20
2019-03-15T23:37:36.386Z,101496.90
2019-03-15T23:40:39.723Z,101506.79
2019-03-15T23:43:42.831Z,101501.54
2019-03-15T23:46:46.012Z,101501.44
2019-03-15T23:49:49.204Z,101507.00
2019-03-15T23:52:52.411Z,101500.41
2019-03-15T23:55:55.576Z,101510.64
2019-03-15T23:58:59.610Z,101496.64
